createdAt,value
2023-02-26T00:00:45.200Z,0.90
2023-02-26T00:03:54.257Z,0.90
2023-02-26T00:07:07.459Z,0.50
2023-02-26T00:10:17.512Z,1.05
2023-02-26T00:13:30.064Z,0.40
2023-02-26T00:16:41.326Z,0.60
2023-02-26T00:19:53.728Z,0.80
2023-02-26T00:23:07.390Z,0.70
2023-02-26T00:26:15.429Z,1.10
2023-02-26T00:29:27.563Z,0.80
2023-02-26T00:32:42.392Z,0.95
2023-02-26T00:35:52.988Z,0.68
2023-02-26T00:39:08.351Z,0.88
2023-02-26T00:42:16.829Z,0.93
2023-02-26T00:45:27.992Z,0.82
2023-02-26T00:48:43.084Z,1.40
2023-02-26T00:51:53.821Z,0.60
2023-02-26T00:55:03.452Z,0.95
2023-02-26T00:58:13.274Z,1.00
2023-02-26T01:01:27.798Z,0.60
2023-02-26T01:04:37.159Z,0.95
2023-02-26T01:07:51.268Z,0.70
2023-02-26T01:11:08.815Z,0.70
2023-02-26T01:14:19.512Z,0.70
2023-02-26T01:17:32.295Z,0.60
2023-02-26T01:20:42.850Z,0.82
2023-02-26T01:23:54.221Z,0.75
2023-02-26T01:27:05.865Z,0.40
2023-02-26T01:30:24.282Z,0.70
2023-02-26T01:33:35.895Z,0.70
2023-02-26T01:36:47.539Z,0.57
2023-02-26T01:40:00.775Z,0.50
2023-02-26T01:43:14.011Z,0.80
2023-02-26T01:49:36.392Z,0.50
2023-02-26T01:53:21.039Z,0.80
2023-02-26T01:56:33.814Z,0.90
2023-02-26T01:59:47.780Z,0.60
2023-02-26T02:02:59.330Z,0.60
2023-02-26T02:06:15.813Z,1.10
2023-02-26T02:09:29.292Z,0.80
2023-02-26T02:12:41.176Z,0.70
2023-02-26T02:15:52.168Z,0.80
2023-02-26T02:19:08.942Z,0.70
2023-02-26T02:22:57.067Z,1.07
2023-02-26T02:26:46.193Z,0.95
2023-02-26T02:30:21.036Z,0.93
2023-02-26T02:33:33.250Z,0.95
2023-02-26T02:36:45.147Z,1.17
2023-02-26T02:39:56.166Z,0.57
2023-02-26T02:43:04.506Z,0.90
2023-02-26T02:46:15.444Z,0.80
2023-02-26T02:49:29.734Z,0.90
2023-02-26T02:52:44.056Z,0.70
2023-02-26T02:55:54.951Z,1.10
2023-02-26T02:59:08.337Z,0.80
2023-02-26T03:05:28.042Z,1.30
2023-02-26T03:08:40.346Z,1.20
2023-02-26T03:11:50.249Z,1.50
2023-02-26T03:15:00.457Z,1.30
2023-02-26T03:18:15.645Z,0.80
2023-02-26T03:21:30.064Z,0.90
2023-02-26T03:24:41.536Z,0.80
2023-02-26T03:27:55.618Z,1.00
2023-02-26T03:31:09.819Z,0.82
2023-02-26T03:34:21.443Z,1.12
2023-02-26T03:37:33.559Z,1.05
2023-02-26T03:40:45.755Z,0.90
2023-02-26T03:43:58.175Z,0.80
2023-02-26T03:47:09.080Z,1.50
2023-02-26T03:50:22.515Z,2.40
2023-02-26T03:56:43.787Z,1.50
2023-02-26T03:59:54.565Z,1.35
2023-02-26T04:03:06.107Z,1.17
2023-02-26T04:06:17.629Z,1.37
2023-02-26T04:09:26.395Z,1.20
2023-02-26T04:12:39.848Z,1.87
2023-02-26T04:18:56.137Z,1.30
2023-02-26T04:22:06.720Z,1.07
2023-02-26T04:25:18.358Z,1.27
2023-02-26T04:28:28.152Z,0.90
2023-02-26T04:31:39.920Z,1.62
2023-02-26T04:34:48.770Z,2.40
2023-02-26T04:37:59.637Z,1.45
2023-02-26T04:41:12.516Z,1.35
2023-02-26T04:44:23.099Z,1.82
2023-02-26T04:50:46.274Z,1.90
2023-02-26T04:53:55.407Z,1.42
2023-02-26T04:57:06.053Z,1.80
2023-02-26T05:00:20.837Z,1.35
2023-02-26T05:03:31.468Z,2.22
2023-02-26T05:06:39.560Z,2.15
2023-02-26T05:09:47.611Z,1.42
2023-02-26T05:12:58.279Z,1.82
2023-02-26T05:16:07.691Z,1.95
2023-02-26T05:19:18.868Z,2.75
2023-02-26T05:22:28.894Z,1.52
2023-02-26T05:25:42.248Z,1.40
2023-02-26T05:28:54.484Z,1.22
2023-02-26T05:32:04.578Z,1.80
2023-02-26T05:35:16.863Z,1.82
2023-02-26T05:38:26.625Z,1.30
2023-02-26T05:41:37.206Z,2.12
2023-02-26T05:44:47.655Z,1.65
2023-02-26T05:47:56.951Z,1.60
2023-02-26T05:51:07.855Z,1.30
2023-02-26T05:54:17.536Z,1.67
2023-02-26T05:57:29.182Z,1.95
2023-02-26T06:00:38.920Z,1.90
2023-02-26T06:03:49.025Z,1.37
2023-02-26T06:07:02.396Z,1.70
2023-02-26T06:13:23.377Z,2.25
2023-02-26T06:16:35.040Z,1.40
2023-02-26T06:19:48.029Z,1.90
2023-02-26T06:22:58.826Z,1.20
2023-02-26T06:26:10.743Z,2.17
2023-02-26T06:29:22.178Z,1.12
2023-02-26T06:32:34.101Z,2.00
2023-02-26T06:35:43.225Z,2.05
2023-02-26T06:38:54.626Z,2.40
2023-02-26T06:42:04.576Z,1.70
2023-02-26T06:45:14.798Z,2.00
2023-02-26T06:48:23.545Z,1.57
2023-02-26T06:51:31.746Z,1.57
2023-02-26T06:54:39.038Z,2.50
2023-02-26T06:57:51.396Z,1.92
2023-02-26T07:01:03.843Z,2.50
2023-02-26T07:04:13.774Z,2.37
2023-02-26T07:07:21.808Z,1.27
2023-02-26T07:10:33.480Z,1.57
2023-02-26T07:13:43.007Z,1.27
2023-02-26T07:16:54.521Z,1.35
2023-02-26T07:20:08.274Z,2.25
2023-02-26T07:23:16.381Z,2.17
2023-02-26T07:26:25.932Z,2.90
2023-02-26T07:29:36.803Z,2.17
2023-02-26T07:32:44.902Z,3.47
2023-02-26T07:35:54.735Z,1.82
2023-02-26T07:39:05.473Z,1.82
2023-02-26T07:42:15.733Z,1.82
2023-02-26T07:45:28.002Z,1.70
2023-02-26T07:48:42.249Z,2.25
2023-02-26T07:51:52.817Z,1.60
2023-02-26T07:55:03.528Z,1.92
2023-02-26T07:58:15.069Z,2.25
2023-02-26T08:01:29.348Z,1.50
2023-02-26T08:04:43.014Z,2.10
2023-02-26T08:07:56.235Z,1.25
2023-02-26T08:11:06.846Z,1.55
2023-02-26T08:14:19.403Z,1.40
2023-02-26T08:17:31.184Z,1.50
2023-02-26T08:20:38.557Z,1.27
2023-02-26T08:23:52.844Z,1.90
2023-02-26T08:27:07.085Z,2.10
2023-02-26T08:30:20.421Z,1.47
2023-02-26T08:33:31.334Z,1.57
2023-02-26T08:36:43.312Z,1.95
2023-02-26T08:39:54.107Z,1.72
2023-02-26T08:43:07.692Z,1.22
2023-02-26T08:46:16.698Z,1.50
2023-02-26T08:49:29.084Z,2.45
2023-02-26T08:52:39.341Z,1.60
2023-02-26T08:55:51.652Z,1.00
2023-02-26T08:59:03.861Z,2.02
2023-02-26T09:02:16.697Z,1.40
2023-02-26T09:05:27.613Z,1.75
2023-02-26T09:08:37.471Z,1.32
2023-02-26T09:11:48.637Z,1.20
2023-02-26T09:15:00.581Z,1.55
2023-02-26T09:18:15.822Z,1.10
2023-02-26T09:21:27.381Z,1.30
2023-02-26T09:24:37.902Z,1.30
2023-02-26T09:27:49.361Z,1.77
2023-02-26T09:31:01.491Z,1.92
2023-02-26T09:34:11.667Z,1.10
2023-02-26T09:37:22.173Z,1.37
2023-02-26T09:40:38.584Z,1.22
2023-02-26T09:44:00.767Z,1.25
2023-02-26T09:47:11.146Z,1.50
2023-02-26T09:50:22.275Z,1.52
2023-02-26T09:53:32.044Z,1.45
2023-02-26T09:56:44.467Z,1.47
2023-02-26T09:59:57.596Z,1.45
2023-02-26T10:03:13.822Z,1.12
2023-02-26T10:06:27.118Z,1.25
2023-02-26T10:09:43.239Z,1.60
2023-02-26T10:12:54.241Z,1.70
2023-02-26T10:16:03.921Z,1.65
2023-02-26T10:19:19.552Z,2.17
2023-02-26T10:22:32.475Z,1.60
2023-02-26T10:25:46.853Z,1.57
2023-02-26T10:29:03.385Z,1.27
2023-02-26T10:32:21.610Z,0.80
2023-02-26T10:35:32.181Z,1.72
2023-02-26T10:38:42.925Z,1.47
2023-02-26T10:41:54.542Z,1.87
2023-02-26T10:45:10.972Z,1.57
2023-02-26T10:48:47.748Z,1.85
2023-02-26T10:52:00.549Z,1.50
2023-02-26T10:55:32.970Z,1.22
2023-02-26T10:58:45.064Z,1.10
2023-02-26T11:01:59.212Z,1.65
2023-02-26T11:05:11.209Z,1.27
2023-02-26T11:08:20.648Z,1.57
2023-02-26T11:12:00.432Z,1.72
2023-02-26T11:15:16.194Z,1.82
2023-02-26T11:18:30.918Z,1.60
2023-02-26T11:21:43.304Z,1.35
2023-02-26T11:24:54.292Z,1.57
2023-02-26T11:28:08.800Z,1.75
2023-02-26T11:31:20.344Z,1.75
2023-02-26T11:34:30.914Z,1.70
2023-02-26T11:37:44.673Z,1.32
2023-02-26T11:40:54.275Z,1.27
2023-02-26T11:44:07.876Z,1.42
2023-02-26T11:47:19.784Z,1.75
2023-02-26T11:50:30.839Z,1.35
2023-02-26T11:53:44.217Z,1.82
2023-02-26T11:56:55.549Z,1.50
2023-02-26T12:00:08.189Z,2.08
2023-02-26T12:03:20.738Z,1.45
2023-02-26T12:06:29.308Z,1.40
2023-02-26T12:09:37.376Z,1.37
2023-02-26T12:12:53.135Z,1.45
2023-02-26T12:16:04.620Z,1.12
2023-02-26T12:19:15.012Z,1.20
2023-02-26T12:22:45.541Z,1.52
2023-02-26T12:26:21.954Z,1.60
2023-02-26T12:29:43.237Z,1.90
2023-02-26T12:33:15.807Z,1.00
2023-02-26T12:36:47.663Z,1.32
2023-02-26T12:39:48.324Z,1.55
2023-02-26T12:42:59.489Z,1.00
2023-02-26T12:46:14.998Z,1.52
2023-02-26T12:49:59.814Z,1.15
2023-02-26T12:53:38.327Z,1.27
2023-02-26T12:57:06.311Z,1.30
2023-02-26T13:00:27.696Z,1.35
2023-02-26T13:03:52.558Z,1.45
2023-02-26T13:07:21.661Z,1.20
2023-02-26T13:10:35.202Z,1.85
2023-02-26T13:13:52.852Z,1.27
2023-02-26T13:17:06.573Z,0.95
2023-02-26T13:20:22.166Z,1.17
2023-02-26T13:23:34.153Z,1.10
2023-02-26T13:26:45.823Z,1.70
2023-02-26T13:29:59.087Z,1.32
2023-02-26T13:33:12.131Z,1.00
2023-02-26T13:36:23.584Z,2.05
2023-02-26T13:39:45.476Z,1.00
2023-02-26T13:42:58.000Z,0.93
2023-02-26T13:46:16.579Z,1.67
2023-02-26T13:49:29.164Z,3.08
2023-02-26T13:52:39.907Z,3.15
2023-02-26T13:55:52.869Z,2.60
2023-02-26T13:59:06.916Z,3.62
2023-02-26T14:02:52.352Z,2.83
2023-02-26T14:06:14.705Z,1.75
2023-02-26T14:09:51.873Z,2.52
2023-02-26T14:13:12.932Z,2.12
2023-02-26T14:16:27.008Z,2.52
2023-02-26T14:19:36.082Z,2.30
2023-02-26T14:22:50.016Z,1.42
2023-02-26T14:26:03.649Z,2.15
2023-02-26T14:29:20.650Z,1.90
2023-02-26T14:32:35.689Z,2.02
2023-02-26T14:35:45.898Z,1.60
2023-02-26T14:38:53.240Z,2.02
2023-02-26T14:42:05.561Z,1.67
2023-02-26T14:45:36.838Z,2.27
2023-02-26T14:48:47.290Z,1.47
2023-02-26T14:52:04.360Z,1.72
2023-02-26T14:55:39.246Z,2.10
2023-02-26T14:58:56.181Z,1.95
2023-02-26T15:02:14.797Z,2.42
2023-02-26T15:09:06.708Z,1.40
2023-02-26T15:12:42.084Z,1.62
2023-02-26T15:15:55.992Z,1.75
2023-02-26T15:19:17.467Z,1.92
2023-02-26T15:22:44.376Z,1.62
2023-02-26T15:25:54.942Z,2.08
2023-02-26T15:29:09.781Z,1.55
2023-02-26T15:32:30.784Z,0.90
2023-02-26T15:35:38.830Z,1.30
2023-02-26T15:38:51.992Z,1.55
2023-02-26T15:42:03.967Z,1.80
2023-02-26T15:45:18.801Z,1.47
2023-02-26T15:48:29.798Z,1.65
2023-02-26T15:51:40.541Z,1.40
2023-02-26T15:54:52.804Z,1.27
2023-02-26T15:58:03.733Z,1.60
2023-02-26T16:01:18.558Z,1.12
2023-02-26T16:04:31.169Z,1.45
2023-02-26T16:07:42.618Z,1.02
2023-02-26T16:10:52.547Z,1.00
2023-02-26T16:14:03.899Z,1.57
2023-02-26T16:17:17.111Z,0.93
2023-02-26T16:23:37.186Z,1.27
2023-02-26T16:26:49.079Z,1.30
2023-02-26T16:30:01.740Z,1.42
2023-02-26T16:33:16.732Z,1.75
2023-02-26T16:36:30.127Z,1.05
2023-02-26T16:39:42.523Z,1.32
2023-02-26T16:42:56.066Z,1.80
2023-02-26T16:46:07.778Z,1.32
2023-02-26T16:49:19.069Z,1.82
2023-02-26T16:52:27.504Z,1.57
2023-02-26T16:55:38.459Z,1.62
2023-02-26T16:58:49.468Z,1.50
2023-02-26T17:02:00.289Z,1.22
2023-02-26T17:05:12.495Z,0.88
2023-02-26T17:08:24.141Z,1.13
2023-02-26T17:11:37.953Z,1.55
2023-02-26T17:14:47.198Z,1.15
2023-02-26T17:17:58.790Z,1.22
2023-02-26T17:21:09.147Z,1.57
2023-02-26T17:24:21.865Z,0.98
2023-02-26T17:27:30.800Z,1.07
2023-02-26T17:30:41.480Z,1.47
2023-02-26T17:33:53.439Z,1.45
2023-02-26T17:37:05.489Z,1.30
2023-02-26T17:40:24.652Z,1.25
2023-02-26T17:43:34.807Z,1.02
2023-02-26T17:46:43.924Z,1.05
2023-02-26T17:49:52.886Z,1.05
2023-02-26T17:53:03.547Z,1.40
2023-02-26T17:56:15.990Z,1.02
2023-02-26T17:59:25.986Z,0.97
2023-02-26T18:02:38.715Z,0.95
2023-02-26T18:05:49.445Z,1.17
2023-02-26T18:09:02.727Z,1.20
2023-02-26T18:15:18.828Z,1.22
2023-02-26T18:18:32.408Z,1.12
2023-02-26T18:21:44.794Z,1.40
2023-02-26T18:24:54.271Z,0.87
2023-02-26T18:28:04.347Z,1.07
2023-02-26T18:31:15.074Z,0.93
2023-02-26T18:34:24.163Z,0.80
2023-02-26T18:37:36.076Z,0.70
2023-02-26T18:40:46.750Z,1.05
2023-02-26T18:43:58.262Z,0.90
2023-02-26T18:47:09.961Z,1.15
2023-02-26T18:50:20.993Z,0.80
2023-02-26T18:53:30.489Z,0.80
2023-02-26T18:56:42.208Z,0.90
2023-02-26T18:59:53.959Z,0.47
2023-02-26T19:03:03.880Z,1.10
2023-02-26T19:06:14.913Z,1.00
2023-02-26T19:09:23.914Z,1.00
2023-02-26T19:12:37.217Z,0.70
2023-02-26T19:15:49.326Z,0.82
2023-02-26T19:18:59.268Z,0.70
2023-02-26T19:22:10.024Z,1.37
2023-02-26T19:25:23.552Z,0.70
2023-02-26T19:28:31.065Z,0.93
2023-02-26T19:31:39.221Z,0.78
2023-02-26T19:34:49.169Z,1.10
2023-02-26T19:37:59.831Z,0.72
2023-02-26T19:41:10.215Z,0.90
2023-02-26T19:44:20.903Z,0.93
2023-02-26T19:47:31.496Z,1.17
2023-02-26T19:50:41.554Z,1.15
2023-02-26T19:53:49.022Z,1.30
2023-02-26T19:56:58.711Z,0.80
2023-02-26T20:00:14.283Z,0.72
2023-02-26T20:03:25.146Z,0.68
2023-02-26T20:06:36.192Z,1.12
2023-02-26T20:09:47.107Z,0.80
2023-02-26T20:12:58.884Z,0.70
2023-02-26T20:16:09.161Z,0.88
2023-02-26T20:19:19.623Z,1.00
2023-02-26T20:22:28.641Z,1.00
2023-02-26T20:25:37.327Z,0.57
2023-02-26T20:28:49.389Z,0.65
2023-02-26T20:32:01.234Z,1.15
2023-02-26T20:35:15.239Z,1.27
2023-02-26T20:38:25.337Z,0.90
2023-02-26T20:41:37.826Z,0.62
2023-02-26T20:44:46.776Z,0.57
2023-02-26T20:47:57.311Z,0.70
2023-02-26T20:51:08.208Z,0.70
2023-02-26T20:54:19.399Z,1.17
2023-02-26T20:57:31.776Z,0.47
2023-02-26T21:00:44.470Z,0.60
2023-02-26T21:03:56.368Z,0.50
2023-02-26T21:07:17.554Z,0.60
2023-02-26T21:10:29.276Z,0.65
2023-02-26T21:13:38.283Z,0.60
2023-02-26T21:16:49.847Z,0.72
2023-02-26T21:19:59.785Z,0.70
2023-02-26T21:23:13.330Z,0.40
2023-02-26T21:26:23.607Z,0.50
2023-02-26T21:29:34.532Z,0.42
2023-02-26T21:32:42.544Z,0.40
2023-02-26T21:35:53.697Z,0.93
2023-02-26T21:39:01.118Z,0.57
2023-02-26T21:42:12.216Z,0.82
2023-02-26T21:45:24.725Z,1.00
2023-02-26T21:48:34.399Z,0.70
2023-02-26T21:51:46.065Z,0.80
2023-02-26T21:54:57.615Z,0.60
2023-02-26T21:58:07.342Z,0.70
2023-02-26T22:01:20.466Z,0.60
2023-02-26T22:04:28.770Z,0.98
2023-02-26T22:07:39.586Z,0.70
2023-02-26T22:10:52.185Z,0.70
2023-02-26T22:14:03.260Z,0.72
2023-02-26T22:17:14.092Z,0.53
2023-02-26T22:20:26.016Z,0.50
2023-02-26T22:23:39.213Z,0.57
2023-02-26T22:26:50.848Z,0.57
2023-02-26T22:30:03.506Z,0.70
2023-02-26T22:33:12.737Z,0.47
2023-02-26T22:36:20.137Z,0.45
2023-02-26T22:39:30.723Z,0.80
2023-02-26T22:42:40.829Z,0.55
2023-02-26T22:45:52.635Z,0.60
2023-02-26T22:49:03.333Z,0.80
2023-02-26T22:52:12.471Z,0.60
2023-02-26T22:55:24.010Z,0.93
2023-02-26T22:58:35.326Z,0.70
2023-02-26T23:01:47.888Z,0.72
2023-02-26T23:04:59.627Z,0.60
2023-02-26T23:08:08.459Z,1.07
2023-02-26T23:11:20.233Z,0.55
2023-02-26T23:14:33.652Z,0.70
2023-02-26T23:17:43.375Z,0.90
2023-02-26T23:20:54.049Z,0.93
2023-02-26T23:24:05.513Z,0.80
2023-02-26T23:27:16.010Z,0.30
2023-02-26T23:30:29.112Z,0.80
2023-02-26T23:33:39.780Z,0.60
2023-02-26T23:36:49.895Z,0.30
2023-02-26T23:39:59.655Z,0.53
2023-02-26T23:43:10.601Z,0.50
2023-02-26T23:46:22.347Z,0.40
2023-02-26T23:49:32.614Z,0.55
2023-02-26T23:52:45.007Z,0.50
2023-02-26T23:55:55.519Z,0.57
2023-02-26T23:59:05.128Z,0.68
